Time;durP1;ratioP1;P1;durP2;ratioP2;P2;SDS_P1;SDS_P2;PMS_P1;PMS_P2;Temp;Humidity;BMP_temperature;BMP_pressure;BME280_temperature;BME280_humidity;BME280_pressure;Samples;Min_cycle;Max_cycle;Signal;HPM_P1;HPM_P2
2021/09/28 00:01:49;;;;;;;10.57;3.97;;;14.60;99.90;;;;;;8315121;28;20206;-76
2021/09/28 00:05:50;;;;;;;10.30;3.67;;;14.60;99.90;;;;;;8331283;28;20231;-75
2021/09/28 00:09:51;;;;;;;13.00;3.10;;;14.60;99.90;;;;;;8331276;28;20187;-75
2021/09/28 00:13:52;;;;;;;18.83;4.17;;;14.60;99.90;;;;;;8334833;28;20202;-74
2021/09/28 00:17:52;;;;;;;9.80;3.37;;;14.50;99.90;;;;;;8326402;28;20423;-75
2021/09/28 00:21:53;;;;;;;7.23;2.70;;;14.50;99.90;;;;;;8330299;28;20626;-75
2021/09/28 00:25:53;;;;;;;10.70;3.23;;;14.50;99.90;;;;;;8316855;28;20203;-75
2021/09/28 00:29:54;;;;;;;6.20;3.03;;;14.40;99.90;;;;;;8322322;28;20207;-75
2021/09/28 00:33:56;;;;;;;4.50;3.40;;;14.40;99.90;;;;;;8333642;28;20186;-75
2021/09/28 00:37:56;;;;;;;7.40;2.90;;;14.40;99.90;;;;;;8330849;28;20539;-75
2021/09/28 00:41:57;;;;;;;5.30;2.93;;;14.30;99.90;;;;;;8315908;28;20441;-75
2021/09/28 00:45:57;;;;;;;5.70;2.40;;;14.30;99.90;;;;;;8329401;28;20203;-75
2021/09/28 00:49:58;;;;;;;7.50;2.90;;;14.30;99.90;;;;;;8330896;28;20643;-75
2021/09/28 00:54:00;;;;;;;18.83;4.07;;;14.30;99.90;;;;;;8330897;28;20183;-76
2021/09/28 00:58:05;;;;;;;6.40;2.67;;;14.20;99.90;;;;;;8329692;28;20183;-75
2021/09/28 01:10:32;;;;;;;14.23;3.07;;;14.10;99.90;;;;;;8313684;28;20498;-81
2021/09/28 01:14:33;;;;;;;8.73;2.30;;;14.00;99.90;;;;;;8329607;28;20477;-80
2021/09/28 01:18:35;;;;;;;5.60;2.40;;;14.00;99.90;;;;;;8331771;28;20237;-81
2021/09/28 01:22:36;;;;;;;11.47;2.60;;;13.90;99.90;;;;;;8301787;28;20307;-82
2021/09/28 01:26:37;;;;;;;20.20;3.00;;;13.90;99.90;;;;;;8309476;28;20461;-82
2021/09/28 01:30:37;;;;;;;5.83;2.90;;;13.80;99.90;;;;;;8286343;28;20191;-82
2021/09/28 01:34:38;;;;;;;8.83;3.00;;;13.80;99.90;;;;;;8312455;28;20599;-93
2021/09/28 01:38:39;;;;;;;15.20;4.30;;;13.80;99.90;;;;;;8312808;28;20179;-82
2021/09/28 01:42:39;;;;;;;12.67;3.20;;;13.80;99.90;;;;;;8315290;28;20207;-80
2021/09/28 01:46:43;;;;;;;10.90;2.60;;;13.80;99.90;;;;;;8305319;28;20193;-80
2021/09/28 01:50:43;;;;;;;8.30;2.73;;;13.80;99.90;;;;;;8302329;28;20183;-82
2021/09/28 01:54:44;;;;;;;9.97;2.70;;;13.80;99.90;;;;;;8353441;28;20426;-81
2021/09/28 01:58:45;;;;;;;12.43;3.23;;;13.80;99.90;;;;;;8329697;28;20189;-92
2021/09/28 02:02:45;;;;;;;6.13;3.23;;;13.80;99.90;;;;;;8308759;28;20207;-81
2021/09/28 02:06:46;;;;;;;3.57;2.50;;;13.80;99.90;;;;;;8293955;28;20195;-82
2021/09/28 02:10:46;;;;;;;12.77;2.50;;;13.80;99.90;;;;;;8312396;28;20270;-82
2021/09/28 02:14:47;;;;;;;9.20;3.83;;;13.80;99.90;;;;;;8300479;28;20637;-81
2021/09/28 02:18:48;;;;;;;5.87;2.63;;;13.70;99.90;;;;;;8283746;28;20180;-81
2021/09/28 02:22:48;;;;;;;11.20;3.47;;;13.70;99.90;;;;;;8314737;28;20669;-81
2021/09/28 02:26:49;;;;;;;11.87;3.50;;;13.70;99.90;;;;;;8295389;28;20269;-82
2021/09/28 02:30:49;;;;;;;7.27;3.87;;;13.60;99.90;;;;;;8293022;28;20183;-82
2021/09/28 02:34:50;;;;;;;10.90;4.20;;;13.60;99.90;;;;;;8292613;28;20260;-82
2021/09/28 02:38:51;;;;;;;5.87;3.17;;;13.60;99.90;;;;;;8308968;28;20184;-82
2021/09/28 02:42:52;;;;;;;15.00;3.70;;;13.60;99.90;;;;;;8335092;28;20459;-82
2021/09/28 02:46:52;;;;;;;7.57;3.17;;;13.60;99.90;;;;;;8304526;28;20285;-82
2021/09/28 02:50:54;;;;;;;8.10;2.90;;;13.60;99.90;;;;;;8263341;28;20451;-82
2021/09/28 02:54:55;;;;;;;6.33;2.30;;;13.60;99.90;;;;;;8314393;28;20287;-80
2021/09/28 02:58:56;;;;;;;5.77;3.00;;;13.60;99.90;;;;;;8290039;28;20468;-80
2021/09/28 03:02:56;;;;;;;3.53;2.50;;;13.60;99.90;;;;;;8304555;28;20667;-80
2021/09/28 03:06:57;;;;;;;4.57;2.47;;;13.60;99.90;;;;;;8294425;28;20474;-81
2021/09/28 03:10:58;;;;;;;7.50;2.73;;;13.60;99.90;;;;;;8306787;28;20183;-81
2021/09/28 03:14:58;;;;;;;14.80;3.13;;;13.60;99.90;;;;;;8308369;28;20215;-81
2021/09/28 03:18:59;;;;;;;3.80;2.43;;;13.60;99.90;;;;;;8309234;28;20202;-81
2021/09/28 03:22:59;;;;;;;6.77;3.17;;;13.60;99.90;;;;;;8284531;28;20718;-82
2021/09/28 03:27:00;;;;;;;4.90;2.43;;;13.60;99.90;;;;;;8309614;28;20215;-81
2021/09/28 03:31:01;;;;;;;3.87;3.43;;;13.60;99.90;;;;;;8311354;28;20710;-80
2021/09/28 03:35:09;;;;;;;4.70;2.67;;;13.60;99.90;;;;;;8318908;28;20279;-81
2021/09/28 03:39:11;;;;;;;15.57;4.60;;;13.60;99.90;;;;;;8289785;28;20206;-81
2021/09/28 03:43:12;;;;;;;6.20;2.57;;;13.60;99.90;;;;;;8292441;28;20501;-81
2021/09/28 03:47:13;;;;;;;4.57;2.13;;;13.60;99.90;;;;;;8289124;28;20522;-82
2021/09/28 03:51:15;;;;;;;9.80;3.17;;;13.60;99.90;;;;;;8277799;28;20965;-82
2021/09/28 03:55:19;;;;;;;4.20;2.30;;;13.60;99.90;;;;;;8281378;28;20189;-82
2021/09/28 03:59:20;;;;;;;8.33;2.73;;;13.70;99.90;;;;;;8295658;28;20853;-80
2021/09/28 04:03:20;;;;;;;7.03;2.57;;;13.70;99.90;;;;;;8322423;28;20470;-80
2021/09/28 04:07:21;;;;;;;11.20;2.07;;;13.60;99.90;;;;;;8295916;28;20227;-81
2021/09/28 04:11:22;;;;;;;4.70;2.07;;;13.60;99.90;;;;;;8294952;28;20701;-81
2021/09/28 04:15:25;;;;;;;8.40;2.70;;;13.60;99.90;;;;;;8311958;28;20227;-81
2021/09/28 04:19:26;;;;;;;12.50;2.60;;;13.60;99.80;;;;;;8299978;28;20184;-81
2021/09/28 04:23:27;;;;;;;2.20;1.80;;;13.60;99.80;;;;;;8314587;28;20814;-81
2021/09/28 04:27:28;;;;;;;3.87;2.10;;;13.60;99.70;;;;;;8292838;28;20278;-81
2021/09/28 04:31:28;;;;;;;5.63;2.20;;;13.60;99.70;;;;;;8292978;28;20186;-81
2021/09/28 04:35:29;;;;;;;14.03;2.67;;;13.60;99.70;;;;;;8308988;28;20534;-80
2021/09/28 04:39:30;;;;;;;4.63;1.93;;;13.50;99.70;;;;;;8308539;28;20215;-81
2021/09/28 04:43:30;;;;;;;6.80;2.60;;;13.50;99.70;;;;;;8307972;28;20214;-80
2021/09/28 04:47:37;;;;;;;4.90;2.40;;;13.50;99.70;;;;;;8291662;28;20218;-80
2021/09/28 04:51:41;;;;;;;8.40;2.20;;;13.50;99.70;;;;;;8298518;28;20179;-79
2021/09/28 04:55:45;;;;;;;17.20;3.00;;;13.40;99.70;;;;;;8302910;28;20937;-79
2021/09/28 04:59:49;;;;;;;15.00;2.50;;;13.30;99.80;;;;;;8309836;28;20425;-81
2021/09/28 05:03:50;;;;;;;8.10;2.40;;;13.20;99.80;;;;;;8328744;28;20453;-80
2021/09/28 05:07:51;;;;;;;5.40;2.03;;;13.20;99.80;;;;;;8314024;28;20963;-81
2021/09/28 05:12:00;;;;;;;4.93;2.07;;;13.20;99.80;;;;;;8311787;28;20983;-80
2021/09/28 05:16:28;;;;;;;11.13;2.67;;;13.20;99.80;;;;;;8287239;28;20503;-80
2021/09/28 05:20:32;;;;;;;6.53;2.43;;;13.20;99.80;;;;;;8309222;28;20593;-80
2021/09/28 05:24:35;;;;;;;5.13;2.83;;;13.10;99.90;;;;;;8330017;28;20518;-79
2021/09/28 05:28:35;;;;;;;8.83;2.60;;;13.10;99.80;;;;;;8301817;28;20491;-79
2021/09/28 05:32:36;;;;;;;7.00;2.70;;;13.10;99.80;;;;;;8301094;28;20190;-78
2021/09/28 05:36:37;;;;;;;10.17;3.17;;;13.00;99.70;;;;;;8291876;28;20221;-82
2021/09/28 05:40:37;;;;;;;5.00;2.93;;;13.00;99.70;;;;;;8297459;28;20209;-82
2021/09/28 05:44:38;;;;;;;8.93;3.20;;;12.90;99.80;;;;;;8315680;28;20217;-82
2021/09/28 05:48:39;;;;;;;17.87;4.00;;;12.80;99.90;;;;;;8315556;28;20176;-82
2021/09/28 05:52:39;;;;;;;12.63;2.10;;;12.80;99.90;;;;;;8316080;28;20186;-83
2021/09/28 05:56:40;;;;;;;6.30;2.27;;;13.00;99.90;;;;;;8319397;28;20242;-82
2021/09/28 06:00:41;;;;;;;5.67;1.70;;;13.10;99.90;;;;;;8326599;28;20570;-82
2021/09/28 06:04:42;;;;;;;8.20;1.97;;;13.20;99.90;;;;;;8314215;28;20291;-80
2021/09/28 06:08:43;;;;;;;8.23;1.60;;;13.30;99.60;;;;;;8297834;28;20257;-81
2021/09/28 06:12:43;;;;;;;6.87;2.50;;;13.50;99.30;;;;;;8319645;28;20509;-78
2021/09/28 06:16:44;;;;;;;9.57;1.87;;;13.60;99.10;;;;;;8317563;28;20191;-78
2021/09/28 06:20:44;;;;;;;8.73;2.23;;;13.70;99.00;;;;;;8300978;28;20235;-80
2021/09/28 06:24:45;;;;;;;7.73;2.47;;;13.70;98.90;;;;;;8316533;28;20217;-81
2021/09/28 06:28:46;;;;;;;9.07;3.60;;;13.70;98.90;;;;;;8320723;28;20178;-81
2021/09/28 06:32:46;;;;;;;6.40;2.27;;;13.50;99.00;;;;;;8302124;28;20175;-80
2021/09/28 06:36:47;;;;;;;4.17;2.60;;;13.50;99.20;;;;;;8302697;28;20186;-82
2021/09/28 06:40:48;;;;;;;5.80;2.77;;;13.50;99.40;;;;;;8313392;28;20211;-80
2021/09/28 06:44:48;;;;;;;7.83;3.00;;;13.50;99.50;;;;;;8300494;28;20211;-81
2021/09/28 06:48:49;;;;;;;11.10;2.60;;;13.50;99.60;;;;;;8324534;28;20194;-81
2021/09/28 06:52:49;;;;;;;3.37;2.13;;;13.60;99.50;;;;;;8324367;28;20266;-81
2021/09/28 06:56:50;;;;;;;6.93;2.00;;;13.70;99.50;;;;;;8285060;28;20185;-78
2021/09/28 07:00:51;;;;;;;14.33;3.43;;;13.90;99.50;;;;;;8305393;28;20199;-79
2021/09/28 07:04:51;;;;;;;6.23;2.47;;;14.20;99.30;;;;;;8313891;28;20207;-80
2021/09/28 07:08:52;;;;;;;7.30;2.30;;;14.50;99.00;;;;;;8300614;28;20285;-80
2021/09/28 07:12:53;;;;;;;6.20;2.03;;;14.70;98.60;;;;;;8317477;28;20202;-81
2021/09/28 07:16:53;;;;;;;3.53;1.73;;;14.90;98.20;;;;;;8308603;28;20188;-79
2021/09/28 07:20:54;;;;;;;7.00;1.70;;;15.20;98.20;;;;;;8307632;28;20188;-79
2021/09/28 07:24:55;;;;;;;7.83;1.30;;;15.40;97.80;;;;;;8306972;28;20223;-81
2021/09/28 07:28:56;;;;;;;3.73;1.77;;;15.50;97.20;;;;;;8268808;28;20454;-81
2021/09/28 07:32:58;;;;;;;10.77;2.57;;;15.70;96.70;;;;;;8339621;28;20514;-79
2021/09/28 07:36:58;;;;;;;10.83;1.53;;;15.80;96.40;;;;;;8317844;28;20192;-81
2021/09/28 07:40:59;;;;;;;7.20;2.10;;;15.90;96.20;;;;;;8299036;28;20431;-81
2021/09/28 07:45:03;;;;;;;12.53;1.70;;;16.10;96.60;;;;;;8317463;28;20216;-81
2021/09/28 07:49:03;;;;;;;8.37;3.30;;;16.20;95.90;;;;;;8308744;28;20646;-81
2021/09/28 07:53:06;;;;;;;5.90;1.87;;;16.40;96.20;;;;;;8315414;28;20455;-81
2021/09/28 07:57:08;;;;;;;5.50;1.40;;;16.60;95.90;;;;;;8296467;28;20211;-81
2021/09/28 08:01:12;;;;;;;3.57;1.47;;;16.90;95.90;;;;;;8312853;28;20438;-80
2021/09/28 08:05:13;;;;;;;12.90;1.80;;;17.20;95.40;;;;;;8312581;28;20470;-81
2021/09/28 08:09:14;;;;;;;5.13;1.30;;;17.40;95.30;;;;;;8277773;28;20555;-81
2021/09/28 08:13:14;;;;;;;8.77;1.50;;;17.90;95.00;;;;;;8341673;28;20197;-79
2021/09/28 08:17:15;;;;;;;5.03;1.43;;;18.10;94.30;;;;;;8323686;28;20216;-79
2021/09/28 08:21:18;;;;;;;3.10;1.40;;;18.30;93.80;;;;;;8316368;28;20214;-80
2021/09/28 08:25:21;;;;;;;1.53;1.37;;;18.30;93.30;;;;;;8319672;28;20235;-79
2021/09/28 08:29:21;;;;;;;3.93;1.77;;;18.10;93.10;;;;;;8326532;28;20439;-79
2021/09/28 08:33:22;;;;;;;5.27;1.57;;;18.10;93.40;;;;;;8317893;28;20446;-80
2021/09/28 08:37:24;;;;;;;4.70;2.00;;;18.20;93.70;;;;;;8311734;28;20192;-79
2021/09/28 08:41:25;;;;;;;3.87;1.37;;;18.30;93.20;;;;;;8335202;28;20184;-79
2021/09/28 08:45:26;;;;;;;4.50;1.67;;;18.30;93.00;;;;;;8346595;28;20481;-80
2021/09/28 08:49:27;;;;;;;4.53;2.03;;;18.20;93.20;;;;;;8339205;28;20438;-80
2021/09/28 08:53:27;;;;;;;3.83;1.37;;;18.20;93.40;;;;;;8300721;28;20188;-80
2021/09/28 08:57:28;;;;;;;6.80;1.40;;;18.20;92.30;;;;;;8286863;28;20263;-81
2021/09/28 09:01:37;;;;;;;3.53;1.43;;;17.80;92.40;;;;;;8301421;28;20197;-80
2021/09/28 09:05:47;;;;;;;5.20;1.97;;;17.70;92.70;;;;;;8285560;28;20606;-81
2021/09/28 09:09:48;;;;;;;1.63;1.47;;;17.70;93.00;;;;;;8320868;28;20471;-79
2021/09/28 09:13:52;;;;;;;4.90;1.70;;;17.80;93.00;;;;;;8315939;28;20929;-80
2021/09/28 09:17:56;;;;;;;8.43;2.10;;;17.90;92.80;;;;;;8284270;28;20458;-81
2021/09/28 09:22:02;;;;;;;2.07;1.23;;;18.10;92.70;;;;;;8316676;28;20903;-80
2021/09/28 09:26:08;;;;;;;7.70;2.40;;;18.00;92.30;;;;;;8285770;28;20615;-80
2021/09/28 09:30:10;;;;;;;6.47;2.63;;;17.70;92.60;;;;;;8333146;28;20446;-80
2021/09/28 09:34:15;;;;;;;4.90;2.43;;;17.70;92.70;;;;;;8319061;28;20455;-80
2021/09/28 09:38:18;;;;;;;4.50;3.00;;;17.60;92.60;;;;;;8307186;28;20931;-80
2021/09/28 09:42:19;;;;;;;7.80;2.33;;;17.60;92.90;;;;;;8298332;28;20436;-80
2021/09/28 09:46:20;;;;;;;2.17;1.97;;;17.70;92.60;;;;;;8306791;28;20479;-80
2021/09/28 09:50:23;;;;;;;6.10;2.43;;;17.90;92.40;;;;;;8296233;28;20268;-83
2021/09/28 09:54:36;;;;;;;5.77;2.60;;;18.10;92.80;;;;;;8297703;28;20923;-82
2021/09/28 09:58:37;;;;;;;4.60;3.07;;;18.60;91.70;;;;;;8300354;28;20434;-83
2021/09/28 10:02:38;;;;;;;4.90;2.33;;;18.80;91.10;;;;;;8314891;28;20442;-81
2021/09/28 10:06:39;;;;;;;5.00;2.83;;;18.90;91.60;;;;;;8299854;28;20537;-82
2021/09/28 10:10:43;;;;;;;2.90;2.40;;;19.30;91.40;;;;;;8316507;28;20238;-82
2021/09/28 10:14:45;;;;;;;3.03;2.37;;;19.50;90.80;;;;;;8299957;28;20478;-82
2021/09/28 10:18:46;;;;;;;6.33;3.50;;;19.40;90.40;;;;;;8304171;28;20453;-81
2021/09/28 10:22:52;;;;;;;7.67;2.80;;;19.20;90.70;;;;;;8326607;28;20437;-82
2021/09/28 10:26:56;;;;;;;5.77;2.50;;;19.10;90.80;;;;;;8327815;28;20182;-82
2021/09/28 10:30:57;;;;;;;4.13;2.90;;;19.10;91.30;;;;;;8322693;28;20438;-81
2021/09/28 10:35:08;;;;;;;4.30;3.00;;;19.10;91.30;;;;;;8327903;28;20569;-80
2021/09/28 10:39:08;;;;;;;4.97;2.90;;;19.10;91.10;;;;;;8324169;28;20473;-81
2021/09/28 10:43:25;;;;;;;7.27;3.80;;;19.10;90.70;;;;;;8334393;28;20475;-82
2021/09/28 10:47:45;;;;;;;9.23;3.10;;;19.10;90.90;;;;;;8328433;28;20203;-80
2021/09/28 10:51:46;;;;;;;4.33;2.33;;;19.20;91.00;;;;;;8293881;28;20500;-83
2021/09/28 10:55:57;;;;;;;2.93;2.73;;;19.40;90.70;;;;;;8325422;28;20458;-81
2021/09/28 10:59:59;;;;;;;6.17;2.80;;;19.60;91.20;;;;;;8340291;28;20161;-81
2021/09/28 11:04:12;;;;;;;9.13;2.80;;;19.80;90.30;;;;;;8318780;28;20853;-80
2021/09/28 11:08:22;;;;;;;5.33;2.47;;;19.90;90.30;;;;;;8322142;28;20469;-82
2021/09/28 11:12:23;;;;;;;8.00;3.30;;;20.00;90.10;;;;;;8304911;28;20402;-80
2021/09/28 11:16:23;;;;;;;4.50;3.20;;;20.10;90.10;;;;;;8323394;28;20398;-81
2021/09/28 11:20:30;;;;;;;3.40;3.10;;;20.20;90.00;;;;;;8301684;28;20432;-80
2021/09/28 11:24:32;;;;;;;7.50;3.30;;;20.50;90.00;;;;;;8277338;28;20227;-81
2021/09/28 11:28:32;;;;;;;5.53;2.53;;;20.70;89.60;;;;;;8299865;28;20409;-81
2021/09/28 11:32:33;;;;;;;5.50;3.00;;;21.20;88.30;;;;;;8316917;28;20785;-82
2021/09/28 11:36:36;;;;;;;3.17;2.40;;;21.50;87.20;;;;;;8316094;28;20275;-81
2021/09/28 11:40:40;;;;;;;7.33;2.60;;;21.70;86.30;;;;;;8293136;28;20183;-82
2021/09/28 11:44:43;;;;;;;8.63;2.80;;;21.60;85.30;;;;;;8310596;28;20500;-80
2021/09/28 11:48:48;;;;;;;4.10;2.40;;;21.50;85.30;;;;;;8311650;28;20467;-80
2021/09/28 11:52:50;;;;;;;2.70;2.43;;;21.70;84.50;;;;;;8299492;28;20448;-81
2021/09/28 11:56:53;;;;;;;5.80;2.70;;;21.70;84.40;;;;;;8294879;28;20407;-80
2021/09/28 12:00:54;;;;;;;4.97;2.63;;;21.70;84.40;;;;;;8329226;28;20418;-81
2021/09/28 12:05:45;;;;;;;8.17;2.53;;;21.60;84.20;;;;;;8324316;28;20994;-80
2021/09/28 12:09:44;;;;;;;3.13;2.13;;;21.50;84.60;;;;;;8306781;28;20228;-79
2021/09/28 18:06:25;;;;;;;4.97;2.97;;;13.30;99.90;;;;;;8500322;27;20599;-77
2021/09/28 18:10:25;;;;;;;8.63;2.93;;;13.80;99.90;;;;;;8487269;27;20517;-79
2021/09/28 18:14:26;;;;;;;11.80;3.43;;;14.80;99.90;;;;;;8484256;27;20440;-82
2021/09/28 18:18:27;;;;;;;6.93;3.20;;;15.30;99.00;;;;;;8483333;28;20186;-85
2021/09/28 18:22:28;;;;;;;5.60;2.50;;;15.60;98.10;;;;;;8479339;28;20440;-81
2021/09/28 18:30:40;;;;;;;6.82;2.60;;;15.90;96.70;;;;;;8374640;28;21127;-80
2021/09/28 18:34:46;;;;;;;12.53;4.07;;;15.90;96.70;;;;;;8357059;28;20182;-87
2021/09/28 18:38:49;;;;;;;9.70;3.10;;;15.90;96.50;;;;;;8360454;28;20478;-81
2021/09/28 18:43:00;;;;;;;3.93;3.53;;;15.90;96.20;;;;;;8374619;28;20509;-81
2021/09/28 18:47:02;;;;;;;9.60;4.03;;;15.80;96.20;;;;;;8376478;28;20822;-79
2021/09/28 18:51:03;;;;;;;4.40;3.57;;;15.80;96.20;;;;;;8376454;28;20434;-81
2021/09/28 18:55:06;;;;;;;4.10;2.83;;;15.70;96.20;;;;;;8374882;28;20476;-79
2021/09/28 18:59:11;;;;;;;6.97;3.50;;;15.70;96.20;;;;;;8375363;28;20426;-79
2021/09/28 19:03:12;;;;;;;4.97;3.60;;;15.60;96.30;;;;;;8376865;28;20441;-80
2021/09/28 19:07:14;;;;;;;15.93;4.40;;;15.50;96.30;;;;;;8370242;28;20461;-79
2021/09/28 19:11:16;;;;;;;8.90;4.23;;;15.50;96.40;;;;;;8371519;28;20432;-79
2021/09/28 19:15:16;;;;;;;9.37;5.77;;;15.50;96.50;;;;;;8375964;28;20509;-79
2021/09/28 19:19:18;;;;;;;10.53;4.43;;;15.40;96.50;;;;;;8375187;28;20430;-80
2021/09/28 19:23:19;;;;;;;6.83;3.50;;;15.40;96.80;;;;;;8377497;28;20164;-79
2021/09/28 19:27:20;;;;;;;7.50;3.03;;;15.30;96.70;;;;;;8375077;28;20586;-79
2021/09/28 19:31:21;;;;;;;9.07;3.43;;;15.20;96.70;;;;;;8376052;28;20418;-79
2021/09/28 19:35:22;;;;;;;6.57;4.00;;;15.10;96.70;;;;;;8373052;28;20252;-79
2021/09/28 19:39:40;;;;;;;4.30;3.50;;;15.10;96.80;;;;;;8364913;28;20176;-80
2021/09/28 19:43:41;;;;;;;11.47;3.30;;;15.00;96.70;;;;;;8349626;28;20259;-78
2021/09/28 19:47:42;;;;;;;9.83;3.43;;;15.00;97.00;;;;;;8348288;28;20485;-78
2021/09/28 19:51:45;;;;;;;11.90;4.30;;;15.00;97.00;;;;;;8347705;28;20175;-79
2021/09/28 20:00:03;;;;;;;8.43;4.00;;;14.80;97.10;;;;;;8358041;28;20395;-79
2021/09/28 20:38:30;;;;;;;10.40;5.47;;;14.20;98.60;;;;;;8338121;28;20983;-82
2021/09/28 20:42:31;;;;;;;12.63;4.63;;;14.20;98.60;;;;;;8341781;28;20455;-80
2021/09/28 20:46:33;;;;;;;4.80;3.50;;;14.20;98.60;;;;;;8336148;28;20945;-79
2021/09/28 20:50:34;;;;;;;3.43;2.80;;;14.20;98.60;;;;;;8350585;28;20192;-80
2021/09/28 20:54:35;;;;;;;6.70;4.10;;;14.30;98.50;;;;;;8331701;28;20496;-80
2021/09/28 20:58:37;;;;;;;5.47;3.00;;;14.30;98.40;;;;;;8350213;28;20442;-80
2021/09/28 21:02:38;;;;;;;8.17;4.73;;;14.30;98.40;;;;;;8339414;28;20177;-79
2021/09/28 21:06:39;;;;;;;4.80;3.70;;;14.30;98.30;;;;;;8329117;28;20440;-79
2021/09/28 21:10:39;;;;;;;11.73;3.70;;;14.30;98.20;;;;;;8343318;28;20209;-79
2021/09/28 21:14:40;;;;;;;8.53;4.77;;;14.30;98.20;;;;;;8357552;28;20195;-79
2021/09/28 21:18:41;;;;;;;5.93;4.80;;;14.30;98.20;;;;;;8322560;28;20194;-78
2021/09/28 21:22:42;;;;;;;6.90;3.53;;;14.30;98.20;;;;;;8322781;28;20513;-80
2021/09/28 21:26:47;;;;;;;5.73;3.77;;;14.30;98.20;;;;;;8333412;28;20167;-79
2021/09/28 21:30:51;;;;;;;7.20;3.90;;;14.30;98.20;;;;;;8340029;28;20263;-79
2021/09/28 21:34:54;;;;;;;5.13;3.60;;;14.30;98.20;;;;;;8337090;28;20449;-81
2021/09/28 21:38:55;;;;;;;12.87;3.83;;;14.20;98.30;;;;;;8336572;28;20447;-80
2021/09/28 21:42:57;;;;;;;15.57;3.60;;;14.20;98.30;;;;;;8321717;28;20447;-80
2021/09/28 21:46:58;;;;;;;6.60;4.47;;;14.10;98.40;;;;;;8323065;28;20970;-78
2021/09/28 21:50:59;;;;;;;3.77;3.47;;;14.10;98.40;;;;;;8323046;28;20434;-78
2021/09/28 21:54:59;;;;;;;7.37;3.47;;;14.00;98.50;;;;;;8321166;28;20188;-80
2021/09/28 21:59:00;;;;;;;9.77;3.43;;;13.90;98.60;;;;;;8316877;28;20184;-79
2021/09/28 22:03:01;;;;;;;11.67;4.27;;;13.80;98.60;;;;;;8319136;28;20188;-79
2021/09/28 22:07:02;;;;;;;7.17;3.53;;;13.70;98.80;;;;;;8317717;28;20272;-79
2021/09/28 22:11:02;;;;;;;6.93;2.97;;;13.60;99.00;;;;;;8350172;28;20173;-80
2021/09/28 22:15:05;;;;;;;4.47;3.30;;;13.60;99.20;;;;;;8316266;28;20190;-79
2021/09/28 22:19:06;;;;;;;12.60;3.60;;;13.60;99.30;;;;;;8315961;28;20186;-79
2021/09/28 22:23:08;;;;;;;8.40;3.27;;;13.60;99.20;;;;;;8317109;28;20424;-78
2021/09/28 22:27:09;;;;;;;6.57;2.37;;;13.60;99.20;;;;;;8312537;28;20490;-82
2021/09/28 22:31:10;;;;;;;5.87;2.83;;;13.60;99.10;;;;;;8315136;28;20480;-80
2021/09/28 22:35:11;;;;;;;4.50;3.30;;;13.60;99.00;;;;;;8321376;28;20190;-79
2021/09/28 22:39:11;;;;;;;5.47;3.03;;;13.60;98.90;;;;;;8325331;28;20530;-78
2021/09/28 22:43:12;;;;;;;11.90;2.83;;;13.60;98.90;;;;;;8315350;28;20214;-81
2021/09/28 22:47:13;;;;;;;4.73;2.57;;;13.60;98.80;;;;;;8316388;28;20204;-79
2021/09/28 22:51:14;;;;;;;7.70;2.53;;;13.60;98.80;;;;;;8316328;28;20197;-81
2021/09/28 22:55:14;;;;;;;6.10;2.77;;;13.60;98.70;;;;;;8319408;28;20420;-79
2021/09/28 22:59:16;;;;;;;6.40;2.87;;;13.60;98.60;;;;;;8319484;28;20582;-80
2021/09/28 23:03:17;;;;;;;11.43;2.40;;;13.60;98.60;;;;;;8316372;28;20196;-80
2021/09/28 23:07:17;;;;;;;10.70;2.60;;;13.60;98.60;;;;;;8317902;28;20468;-79
2021/09/28 23:11:18;;;;;;;6.40;2.70;;;13.60;98.60;;;;;;8317745;28;20199;-79
2021/09/28 23:15:19;;;;;;;2.73;2.43;;;13.60;98.50;;;;;;8316009;28;20671;-79
2021/09/28 23:19:19;;;;;;;8.47;2.57;;;13.60;98.50;;;;;;8321792;28;20195;-79
2021/09/28 23:23:20;;;;;;;8.93;2.57;;;13.60;98.40;;;;;;8323727;28;20181;-79
2021/09/28 23:27:20;;;;;;;2.63;1.80;;;13.60;98.30;;;;;;8323919;28;20235;-78
2021/09/28 23:31:21;;;;;;;4.97;2.57;;;13.70;98.20;;;;;;8323222;28;20194;-80
2021/09/28 23:35:22;;;;;;;2.27;1.80;;;13.70;98.10;;;;;;8354724;28;20178;-79
2021/09/28 23:39:22;;;;;;;13.20;2.63;;;13.80;97.90;;;;;;8355647;28;20179;-79
2021/09/28 23:43:23;;;;;;;4.10;1.47;;;13.90;97.70;;;;;;8354765;28;20182;-80
2021/09/28 23:47:24;;;;;;;7.37;2.67;;;14.00;97.40;;;;;;8349821;28;20218;-81
2021/09/28 23:51:24;;;;;;;2.50;2.00;;;14.00;97.30;;;;;;8347695;28;20243;-80
2021/09/28 23:55:25;;;;;;;3.90;2.17;;;14.00;97.30;;;;;;8352805;28;20179;-79
2021/09/28 23:59:28;;;;;;;2.70;2.10;;;13.90;97.30;;;;;;8352742;28;20192;-81
